Accueil
METAR-TAF:

METAR-TAF

Aéroports :

Rajahmundry, Inde

latitude: 17-06-37N, longitude: 81-49-06E, altitude: 46 m

Observation

Le bulletin a été fait il y a 6 heures et 10 minutes, à 16:30 UTC
Vent 4 kt de nord-est
Température 26°C
Humidité 70%
Pression 1018 hPa
Visibilité: 3000 m
Quelques nuages à une hauteur de 2000 ft
brume sèche

METAR: VORY 221630Z 05004KT 3000 HZ FEW020 26/20 Q1018 NOSIG

Heure: 04:10 (22:40 UTC)

Prévision

Le bulletin a été fait il y a 14 heures et 40 minutes, à 08:00 UTC
Prévision valable du 22 à 09 UTC au 22 à 18 UTC
Vent 10 kt de est
Visibilité: 5000 m
Nuages épars à une hauteur de 1500 ft
brume sèche
Evoluant progressivement
du 22 à 16 UTC au 22 à 17 UTC
Vent 3 kt de direction variable
Visibilité: 3000 m
Nuages épars à une hauteur de 2000 ft
brume

TAF: VORY 220800Z 2209/2218 09010KT 5000 HZ SCT015 BECMG 2216/2217 VRB03KT 3000 BR SCT020

Observations et prévisions météorologiques de plus de 4000 aéroports (messages METAR et TAF).

Les stations disponibles sont représentées par des disques jaunes et rouges sur la carte.

Passer la souris dessus pour voir le nom de la station.

Cliquer dessus pour voir les observations et prévisions météorologiques.

Pour changer de carte: cliquez sur les boutons verts avec une croix noire pour zoomer, sur le bouton vert avec un tiret pour effectuer un zoom arrière, ou sur les flèches vertes pour les cartes adjacentes.


METAR-TAF: